sensor_id;sensor_type;location;lat;lon;timestamp;P1;durP1;ratioP1;P2;durP2;ratioP2
69401;SDS011;56589;51.992;5.924;2023-06-14T00:01:35;7.10;;;2.53;;
69401;SDS011;56589;51.992;5.924;2023-06-14T00:04:04;6.75;;;2.28;;
69401;SDS011;56589;51.992;5.924;2023-06-14T00:06:32;8.57;;;2.33;;
69401;SDS011;56589;51.992;5.924;2023-06-14T00:08:58;5.80;;;2.05;;
69401;SDS011;56589;51.992;5.924;2023-06-14T00:11:24;7.75;;;3.15;;
69401;SDS011;56589;51.992;5.924;2023-06-14T00:13:50;3.95;;;2.20;;
69401;SDS011;56589;51.992;5.924;2023-06-14T00:16:15;4.88;;;1.90;;
69401;SDS011;56589;51.992;5.924;2023-06-14T00:18:41;7.10;;;2.17;;
69401;SDS011;56589;51.992;5.924;2023-06-14T00:21:07;4.43;;;2.22;;
69401;SDS011;56589;51.992;5.924;2023-06-14T00:23:35;3.97;;;1.92;;
69401;SDS011;56589;51.992;5.924;2023-06-14T00:26:01;4.93;;;2.30;;
69401;SDS011;56589;51.992;5.924;2023-06-14T00:28:27;5.60;;;2.70;;
69401;SDS011;56589;51.992;5.924;2023-06-14T00:30:53;4.45;;;2.10;;
69401;SDS011;56589;51.992;5.924;2023-06-14T00:33:19;3.60;;;2.05;;
69401;SDS011;56589;51.992;5.924;2023-06-14T00:35:45;8.55;;;2.65;;
69401;SDS011;56589;51.992;5.924;2023-06-14T00:38:12;6.50;;;2.47;;
69401;SDS011;56589;51.992;5.924;2023-06-14T00:40:40;3.28;;;1.98;;
69401;SDS011;56589;51.992;5.924;2023-06-14T00:43:06;6.50;;;2.10;;
69401;SDS011;56589;51.992;5.924;2023-06-14T00:45:32;4.75;;;2.50;;
69401;SDS011;56589;51.992;5.924;2023-06-14T00:47:58;4.88;;;2.20;;
69401;SDS011;56589;51.992;5.924;2023-06-14T00:50:26;5.00;;;1.92;;
69401;SDS011;56589;51.992;5.924;2023-06-14T00:52:53;9.45;;;2.60;;
69401;SDS011;56589;51.992;5.924;2023-06-14T00:55:19;4.15;;;1.90;;
69401;SDS011;56589;51.992;5.924;2023-06-14T00:57:47;3.40;;;2.22;;
69401;SDS011;56589;51.992;5.924;2023-06-14T01:00:14;3.60;;;1.80;;
69401;SDS011;56589;51.992;5.924;2023-06-14T01:02:40;4.70;;;2.28;;
69401;SDS011;56589;51.992;5.924;2023-06-14T01:05:06;7.43;;;2.05;;
69401;SDS011;56589;51.992;5.924;2023-06-14T01:07:42;3.85;;;2.13;;
69401;SDS011;56589;51.992;5.924;2023-06-14T01:10:31;4.55;;;1.80;;
69401;SDS011;56589;51.992;5.924;2023-06-14T01:13:11;3.58;;;1.98;;
69401;SDS011;56589;51.992;5.924;2023-06-14T01:15:45;5.85;;;2.15;;
69401;SDS011;56589;51.992;5.924;2023-06-14T01:18:12;7.63;;;2.53;;
69401;SDS011;56589;51.992;5.924;2023-06-14T01:20:38;7.28;;;2.05;;
69401;SDS011;56589;51.992;5.924;2023-06-14T01:23:07;5.18;;;1.95;;
69401;SDS011;56589;51.992;5.924;2023-06-14T01:25:33;6.15;;;2.13;;
69401;SDS011;56589;51.992;5.924;2023-06-14T01:27:59;4.65;;;2.00;;
69401;SDS011;56589;51.992;5.924;2023-06-14T01:30:30;4.07;;;2.33;;
69401;SDS011;56589;51.992;5.924;2023-06-14T01:32:57;6.57;;;1.95;;
69401;SDS011;56589;51.992;5.924;2023-06-14T01:35:24;4.15;;;2.28;;
69401;SDS011;56589;51.992;5.924;2023-06-14T01:37:50;4.55;;;2.20;;
69401;SDS011;56589;51.992;5.924;2023-06-14T01:40:20;5.88;;;2.00;;
69401;SDS011;56589;51.992;5.924;2023-06-14T01:42:49;4.05;;;1.80;;
69401;SDS011;56589;51.992;5.924;2023-06-14T01:45:17;6.00;;;1.90;;
69401;SDS011;56589;51.992;5.924;2023-06-14T01:47:45;5.85;;;2.92;;
69401;SDS011;56589;51.992;5.924;2023-06-14T01:50:12;8.68;;;1.92;;
69401;SDS011;56589;51.992;5.924;2023-06-14T01:52:38;4.53;;;2.05;;
69401;SDS011;56589;51.992;5.924;2023-06-14T01:55:05;5.68;;;2.00;;
69401;SDS011;56589;51.992;5.924;2023-06-14T01:57:34;3.22;;;2.05;;
69401;SDS011;56589;51.992;5.924;2023-06-14T02:00:00;4.72;;;2.30;;
69401;SDS011;56589;51.992;5.924;2023-06-14T02:02:26;4.47;;;2.10;;
69401;SDS011;56589;51.992;5.924;2023-06-14T02:04:52;7.65;;;2.75;;
69401;SDS011;56589;51.992;5.924;2023-06-14T02:07:18;8.13;;;2.72;;
69401;SDS011;56589;51.992;5.924;2023-06-14T02:09:43;5.05;;;1.90;;
69401;SDS011;56589;51.992;5.924;2023-06-14T02:12:09;7.15;;;2.15;;
69401;SDS011;56589;51.992;5.924;2023-06-14T02:14:38;2.30;;;1.77;;
69401;SDS011;56589;51.992;5.924;2023-06-14T02:17:04;5.00;;;1.92;;
69401;SDS011;56589;51.992;5.924;2023-06-14T02:19:30;5.32;;;1.83;;
69401;SDS011;56589;51.992;5.924;2023-06-14T02:21:56;3.53;;;2.03;;
69401;SDS011;56589;51.992;5.924;2023-06-14T02:24:22;2.50;;;1.67;;
69401;SDS011;56589;51.992;5.924;2023-06-14T02:26:48;5.22;;;1.95;;
69401;SDS011;56589;51.992;5.924;2023-06-14T02:29:14;5.18;;;2.33;;
69401;SDS011;56589;51.992;5.924;2023-06-14T02:31:42;6.18;;;2.00;;
69401;SDS011;56589;51.992;5.924;2023-06-14T02:34:08;6.03;;;2.00;;
69401;SDS011;56589;51.992;5.924;2023-06-14T02:36:34;5.32;;;2.15;;
69401;SDS011;56589;51.992;5.924;2023-06-14T02:39:00;3.00;;;1.85;;
69401;SDS011;56589;51.992;5.924;2023-06-14T02:41:26;3.60;;;2.08;;
69401;SDS011;56589;51.992;5.924;2023-06-14T02:43:52;5.43;;;2.28;;
69401;SDS011;56589;51.992;5.924;2023-06-14T02:46:18;5.18;;;2.05;;
69401;SDS011;56589;51.992;5.924;2023-06-14T02:48:47;4.68;;;2.50;;
69401;SDS011;56589;51.992;5.924;2023-06-14T02:51:13;5.03;;;2.00;;
69401;SDS011;56589;51.992;5.924;2023-06-14T02:53:38;4.03;;;1.95;;
69401;SDS011;56589;51.992;5.924;2023-06-14T02:56:04;6.45;;;2.17;;
69401;SDS011;56589;51.992;5.924;2023-06-14T02:58:30;7.57;;;1.80;;
69401;SDS011;56589;51.992;5.924;2023-06-14T03:00:56;4.32;;;1.83;;
69401;SDS011;56589;51.992;5.924;2023-06-14T03:03:22;5.72;;;1.77;;
69401;SDS011;56589;51.992;5.924;2023-06-14T03:05:51;4.13;;;1.73;;
69401;SDS011;56589;51.992;5.924;2023-06-14T03:08:17;3.50;;;1.90;;
69401;SDS011;56589;51.992;5.924;2023-06-14T03:10:43;5.97;;;1.73;;
69401;SDS011;56589;51.992;5.924;2023-06-14T03:13:09;3.65;;;2.00;;
69401;SDS011;56589;51.992;5.924;2023-06-14T03:15:35;3.05;;;1.80;;
69401;SDS011;56589;51.992;5.924;2023-06-14T03:18:01;4.35;;;2.35;;
69401;SDS011;56589;51.992;5.924;2023-06-14T03:20:27;3.78;;;2.08;;
69401;SDS011;56589;51.992;5.924;2023-06-14T03:22:55;3.47;;;1.88;;
69401;SDS011;56589;51.992;5.924;2023-06-14T03:25:21;6.30;;;1.75;;
69401;SDS011;56589;51.992;5.924;2023-06-14T03:27:47;4.35;;;1.95;;
69401;SDS011;56589;51.992;5.924;2023-06-14T03:30:13;4.72;;;1.65;;
69401;SDS011;56589;51.992;5.924;2023-06-14T03:32:39;5.57;;;2.13;;
69401;SDS011;56589;51.992;5.924;2023-06-14T03:35:05;3.20;;;1.73;;
69401;SDS011;56589;51.992;5.924;2023-06-14T03:37:32;4.03;;;1.92;;
69401;SDS011;56589;51.992;5.924;2023-06-14T03:40:01;6.50;;;1.80;;
69401;SDS011;56589;51.992;5.924;2023-06-14T03:42:27;2.75;;;1.60;;
69401;SDS011;56589;51.992;5.924;2023-06-14T03:44:52;5.95;;;1.88;;
69401;SDS011;56589;51.992;5.924;2023-06-14T03:47:18;5.88;;;2.00;;
69401;SDS011;56589;51.992;5.924;2023-06-14T03:49:44;5.28;;;2.08;;
69401;SDS011;56589;51.992;5.924;2023-06-14T03:52:10;4.43;;;2.08;;
69401;SDS011;56589;51.992;5.924;2023-06-14T03:54:35;4.00;;;1.75;;
69401;SDS011;56589;51.992;5.924;2023-06-14T03:57:04;4.45;;;1.80;;
69401;SDS011;56589;51.992;5.924;2023-06-14T03:59:30;5.32;;;1.80;;
69401;SDS011;56589;51.992;5.924;2023-06-14T04:01:56;5.07;;;1.95;;
69401;SDS011;56589;51.992;5.924;2023-06-14T04:04:22;4.70;;;2.17;;
69401;SDS011;56589;51.992;5.924;2023-06-14T04:06:48;3.83;;;1.90;;
69401;SDS011;56589;51.992;5.924;2023-06-14T04:09:13;5.57;;;1.77;;
69401;SDS011;56589;51.992;5.924;2023-06-14T04:11:39;4.85;;;2.05;;
69401;SDS011;56589;51.992;5.924;2023-06-14T04:14:08;3.67;;;1.95;;
69401;SDS011;56589;51.992;5.924;2023-06-14T04:16:33;3.08;;;1.55;;
69401;SDS011;56589;51.992;5.924;2023-06-14T04:19:00;6.38;;;1.90;;
69401;SDS011;56589;51.992;5.924;2023-06-14T04:21:26;9.02;;;2.17;;
69401;SDS011;56589;51.992;5.924;2023-06-14T04:23:51;6.85;;;1.70;;
69401;SDS011;56589;51.992;5.924;2023-06-14T04:26:17;3.95;;;1.80;;
69401;SDS011;56589;51.992;5.924;2023-06-14T04:28:43;3.97;;;1.70;;
69401;SDS011;56589;51.992;5.924;2023-06-14T04:31:12;5.15;;;2.08;;
69401;SDS011;56589;51.992;5.924;2023-06-14T04:33:38;4.13;;;2.00;;
69401;SDS011;56589;51.992;5.924;2023-06-14T04:36:03;4.55;;;1.98;;
69401;SDS011;56589;51.992;5.924;2023-06-14T04:38:30;5.65;;;2.42;;
69401;SDS011;56589;51.992;5.924;2023-06-14T04:40:56;6.25;;;1.70;;
69401;SDS011;56589;51.992;5.924;2023-06-14T04:43:21;6.18;;;1.77;;
69401;SDS011;56589;51.992;5.924;2023-06-14T04:45:47;5.43;;;1.58;;
69401;SDS011;56589;51.992;5.924;2023-06-14T04:48:15;4.20;;;1.80;;
69401;SDS011;56589;51.992;5.924;2023-06-14T04:50:41;3.83;;;1.67;;
69401;SDS011;56589;51.992;5.924;2023-06-14T04:53:07;5.93;;;2.13;;
69401;SDS011;56589;51.992;5.924;2023-06-14T04:55:33;3.28;;;1.65;;
69401;SDS011;56589;51.992;5.924;2023-06-14T04:57:59;7.22;;;2.47;;
69401;SDS011;56589;51.992;5.924;2023-06-14T05:00:24;4.82;;;1.70;;
69401;SDS011;56589;51.992;5.924;2023-06-14T05:02:50;12.63;;;2.20;;
69401;SDS011;56589;51.992;5.924;2023-06-14T05:05:19;7.65;;;2.08;;
69401;SDS011;56589;51.992;5.924;2023-06-14T05:07:44;3.20;;;1.60;;
69401;SDS011;56589;51.992;5.924;2023-06-14T05:10:10;6.75;;;2.08;;
69401;SDS011;56589;51.992;5.924;2023-06-14T05:12:36;3.63;;;1.58;;
69401;SDS011;56589;51.992;5.924;2023-06-14T05:15:02;6.88;;;2.03;;
69401;SDS011;56589;51.992;5.924;2023-06-14T05:17:29;6.50;;;1.48;;
69401;SDS011;56589;51.992;5.924;2023-06-14T05:19:54;2.45;;;1.60;;
69401;SDS011;56589;51.992;5.924;2023-06-14T05:22:23;3.25;;;2.03;;
69401;SDS011;56589;51.992;5.924;2023-06-14T05:24:49;3.55;;;1.70;;
69401;SDS011;56589;51.992;5.924;2023-06-14T05:27:15;6.22;;;2.00;;
69401;SDS011;56589;51.992;5.924;2023-06-14T05:29:41;4.55;;;2.13;;
69401;SDS011;56589;51.992;5.924;2023-06-14T05:32:10;6.28;;;1.98;;
69401;SDS011;56589;51.992;5.924;2023-06-14T05:34:36;3.35;;;1.92;;
69401;SDS011;56589;51.992;5.924;2023-06-14T05:37:02;3.22;;;1.60;;
69401;SDS011;56589;51.992;5.924;2023-06-14T05:39:31;5.45;;;2.10;;
69401;SDS011;56589;51.992;5.924;2023-06-14T05:41:58;5.78;;;2.08;;
69401;SDS011;56589;51.992;5.924;2023-06-14T05:44:24;3.67;;;1.90;;
69401;SDS011;56589;51.992;5.924;2023-06-14T05:46:50;3.50;;;1.67;;
69401;SDS011;56589;51.992;5.924;2023-06-14T05:49:16;2.38;;;1.50;;
69401;SDS011;56589;51.992;5.924;2023-06-14T05:51:41;3.70;;;2.10;;
69401;SDS011;56589;51.992;5.924;2023-06-14T05:54:07;4.72;;;2.15;;
69401;SDS011;56589;51.992;5.924;2023-06-14T05:56:35;5.43;;;1.77;;
69401;SDS011;56589;51.992;5.924;2023-06-14T05:59:01;5.00;;;1.98;;
69401;SDS011;56589;51.992;5.924;2023-06-14T06:01:27;4.65;;;2.05;;
69401;SDS011;56589;51.992;5.924;2023-06-14T06:03:53;6.40;;;1.95;;
69401;SDS011;56589;51.992;5.924;2023-06-14T06:06:18;4.53;;;2.03;;
69401;SDS011;56589;51.992;5.924;2023-06-14T06:08:44;6.30;;;1.73;;
69401;SDS011;56589;51.992;5.924;2023-06-14T06:11:10;3.88;;;1.50;;
69401;SDS011;56589;51.992;5.924;2023-06-14T06:13:38;3.72;;;2.08;;
69401;SDS011;56589;51.992;5.924;2023-06-14T06:16:04;5.82;;;2.03;;
69401;SDS011;56589;51.992;5.924;2023-06-14T06:18:30;5.07;;;2.00;;
69401;SDS011;56589;51.992;5.924;2023-06-14T06:20:56;6.15;;;2.00;;
69401;SDS011;56589;51.992;5.924;2023-06-14T06:23:21;3.28;;;1.88;;
69401;SDS011;56589;51.992;5.924;2023-06-14T06:25:47;4.40;;;1.92;;
69401;SDS011;56589;51.992;5.924;2023-06-14T06:28:13;2.40;;;1.80;;
69401;SDS011;56589;51.992;5.924;2023-06-14T06:30:41;4.55;;;1.80;;
69401;SDS011;56589;51.992;5.924;2023-06-14T06:33:07;4.50;;;1.70;;
69401;SDS011;56589;51.992;5.924;2023-06-14T06:35:33;5.03;;;2.08;;
69401;SDS011;56589;51.992;5.924;2023-06-14T06:37:59;7.32;;;2.00;;
69401;SDS011;56589;51.992;5.924;2023-06-14T06:40:25;4.10;;;1.83;;
69401;SDS011;56589;51.992;5.924;2023-06-14T06:42:51;2.72;;;1.60;;
69401;SDS011;56589;51.992;5.924;2023-06-14T06:45:16;5.53;;;1.88;;
69401;SDS011;56589;51.992;5.924;2023-06-14T06:47:45;4.13;;;2.10;;
69401;SDS011;56589;51.992;5.924;2023-06-14T06:50:11;3.88;;;1.98;;
69401;SDS011;56589;51.992;5.924;2023-06-14T06:52:36;3.65;;;1.60;;
69401;SDS011;56589;51.992;5.924;2023-06-14T06:55:02;3.70;;;1.70;;
69401;SDS011;56589;51.992;5.924;2023-06-14T06:57:29;4.18;;;1.80;;
69401;SDS011;56589;51.992;5.924;2023-06-14T06:59:55;7.63;;;1.80;;
69401;SDS011;56589;51.992;5.924;2023-06-14T07:02:20;7.75;;;2.85;;
69401;SDS011;56589;51.992;5.924;2023-06-14T07:04:49;4.88;;;2.08;;
69401;SDS011;56589;51.992;5.924;2023-06-14T07:07:15;3.42;;;1.80;;
69401;SDS011;56589;51.992;5.924;2023-06-14T07:09:41;4.05;;;1.75;;
69401;SDS011;56589;51.992;5.924;2023-06-14T07:12:07;3.53;;;1.90;;
69401;SDS011;56589;51.992;5.924;2023-06-14T07:14:33;3.08;;;1.50;;
69401;SDS011;56589;51.992;5.924;2023-06-14T07:16:59;3.70;;;1.55;;
69401;SDS011;56589;51.992;5.924;2023-06-14T07:19:24;1.90;;;1.42;;
69401;SDS011;56589;51.992;5.924;2023-06-14T07:21:53;2.67;;;1.60;;
69401;SDS011;56589;51.992;5.924;2023-06-14T07:24:19;3.35;;;1.40;;
69401;SDS011;56589;51.992;5.924;2023-06-14T07:26:45;5.28;;;1.20;;
69401;SDS011;56589;51.992;5.924;2023-06-14T07:29:10;4.10;;;1.73;;
69401;SDS011;56589;51.992;5.924;2023-06-14T07:31:36;3.03;;;1.67;;
69401;SDS011;56589;51.992;5.924;2023-06-14T07:34:02;1.98;;;1.67;;
69401;SDS011;56589;51.992;5.924;2023-06-14T07:36:28;3.55;;;1.73;;
69401;SDS011;56589;51.992;5.924;2023-06-14T07:38:56;2.10;;;1.17;;
69401;SDS011;56589;51.992;5.924;2023-06-14T07:41:22;3.20;;;1.30;;
69401;SDS011;56589;51.992;5.924;2023-06-14T07:43:48;2.03;;;1.40;;
69401;SDS011;56589;51.992;5.924;2023-06-14T07:46:14;3.78;;;1.33;;
69401;SDS011;56589;51.992;5.924;2023-06-14T07:48:40;3.63;;;1.00;;
69401;SDS011;56589;51.992;5.924;2023-06-14T07:51:06;4.30;;;1.23;;
69401;SDS011;56589;51.992;5.924;2023-06-14T07:53:32;4.70;;;1.50;;
69401;SDS011;56589;51.992;5.924;2023-06-14T07:56:00;2.15;;;1.30;;
69401;SDS011;56589;51.992;5.924;2023-06-14T07:58:26;3.20;;;1.20;;
69401;SDS011;56589;51.992;5.924;2023-06-14T08:00:52;2.10;;;1.20;;
69401;SDS011;56589;51.992;5.924;2023-06-14T08:03:18;3.42;;;1.25;;
69401;SDS011;56589;51.992;5.924;2023-06-14T08:05:44;2.80;;;1.25;;
69401;SDS011;56589;51.992;5.924;2023-06-14T08:08:10;2.60;;;1.30;;
69401;SDS011;56589;51.992;5.924;2023-06-14T08:10:35;3.08;;;1.17;;
69401;SDS011;56589;51.992;5.924;2023-06-14T08:13:04;2.70;;;1.10;;
69401;SDS011;56589;51.992;5.924;2023-06-14T08:15:29;3.55;;;1.60;;
69401;SDS011;56589;51.992;5.924;2023-06-14T08:17:56;1.20;;;1.10;;
69401;SDS011;56589;51.992;5.924;2023-06-14T08:20:21;3.22;;;1.20;;
69401;SDS011;56589;51.992;5.924;2023-06-14T08:22:47;3.03;;;1.33;;
69401;SDS011;56589;51.992;5.924;2023-06-14T08:25:13;2.90;;;1.05;;
69401;SDS011;56589;51.992;5.924;2023-06-14T08:27:39;1.42;;;1.17;;
69401;SDS011;56589;51.992;5.924;2023-06-14T08:30:08;3.10;;;1.20;;
69401;SDS011;56589;51.992;5.924;2023-06-14T08:32:36;4.97;;;1.90;;
69401;SDS011;56589;51.992;5.924;2023-06-14T08:35:01;3.33;;;1.10;;
69401;SDS011;56589;51.992;5.924;2023-06-14T08:37:28;4.80;;;1.40;;
69401;SDS011;56589;51.992;5.924;2023-06-14T08:39:54;2.38;;;1.20;;
69401;SDS011;56589;51.992;5.924;2023-06-14T08:42:19;1.85;;;1.30;;
69401;SDS011;56589;51.992;5.924;2023-06-14T08:44:49;1.50;;;1.10;;
69401;SDS011;56589;51.992;5.924;2023-06-14T08:47:18;5.28;;;1.58;;
69401;SDS011;56589;51.992;5.924;2023-06-14T08:49:45;3.42;;;1.00;;
69401;SDS011;56589;51.992;5.924;2023-06-14T08:52:12;2.25;;;1.25;;
69401;SDS011;56589;51.992;5.924;2023-06-14T08:54:44;3.78;;;1.27;;
69401;SDS011;56589;51.992;5.924;2023-06-14T08:57:11;2.88;;;1.27;;
69401;SDS011;56589;51.992;5.924;2023-06-14T08:59:37;5.18;;;1.20;;
69401;SDS011;56589;51.992;5.924;2023-06-14T09:02:11;3.45;;;1.50;;
69401;SDS011;56589;51.992;5.924;2023-06-14T09:04:40;2.50;;;1.52;;
69401;SDS011;56589;51.992;5.924;2023-06-14T09:07:06;7.88;;;1.40;;
69401;SDS011;56589;51.992;5.924;2023-06-14T09:09:32;1.80;;;1.30;;
69401;SDS011;56589;51.992;5.924;2023-06-14T09:11:57;1.67;;;1.00;;
69401;SDS011;56589;51.992;5.924;2023-06-14T09:14:23;1.80;;;1.20;;
69401;SDS011;56589;51.992;5.924;2023-06-14T09:16:52;2.42;;;1.00;;
69401;SDS011;56589;51.992;5.924;2023-06-14T09:19:20;3.08;;;1.25;;
69401;SDS011;56589;51.992;5.924;2023-06-14T09:21:50;2.13;;;1.08;;
69401;SDS011;56589;51.992;5.924;2023-06-14T09:24:17;1.73;;;1.10;;
69401;SDS011;56589;51.992;5.924;2023-06-14T09:26:46;2.25;;;1.20;;
69401;SDS011;56589;51.992;5.924;2023-06-14T09:29:12;5.40;;;1.33;;
69401;SDS011;56589;51.992;5.924;2023-06-14T09:31:38;2.70;;;1.05;;
69401;SDS011;56589;51.992;5.924;2023-06-14T09:34:04;2.45;;;1.40;;
69401;SDS011;56589;51.992;5.924;2023-06-14T09:36:31;3.95;;;1.20;;
69401;SDS011;56589;51.992;5.924;2023-06-14T09:39:00;2.05;;;1.33;;
69401;SDS011;56589;51.992;5.924;2023-06-14T09:41:31;2.88;;;0.98;;
69401;SDS011;56589;51.992;5.924;2023-06-14T09:43:57;1.38;;;1.27;;
69401;SDS011;56589;51.992;5.924;2023-06-14T09:46:23;3.53;;;1.50;;
69401;SDS011;56589;51.992;5.924;2023-06-14T09:48:49;2.00;;;1.20;;
69401;SDS011;56589;51.992;5.924;2023-06-14T09:51:15;2.85;;;1.10;;
69401;SDS011;56589;51.992;5.924;2023-06-14T09:53:43;3.10;;;0.95;;
69401;SDS011;56589;51.992;5.924;2023-06-14T09:56:14;1.33;;;1.10;;
69401;SDS011;56589;51.992;5.924;2023-06-14T09:58:47;3.20;;;1.30;;
69401;SDS011;56589;51.992;5.924;2023-06-14T10:01:19;1.50;;;1.10;;
69401;SDS011;56589;51.992;5.924;2023-06-14T10:03:46;2.40;;;1.20;;
69401;SDS011;56589;51.992;5.924;2023-06-14T10:06:15;3.22;;;1.10;;
69401;SDS011;56589;51.992;5.924;2023-06-14T10:08:42;2.13;;;1.13;;
69401;SDS011;56589;51.992;5.924;2023-06-14T10:11:10;2.00;;;1.05;;
69401;SDS011;56589;51.992;5.924;2023-06-14T10:13:40;2.28;;;1.00;;
69401;SDS011;56589;51.992;5.924;2023-06-14T10:16:08;5.22;;;1.30;;
69401;SDS011;56589;51.992;5.924;2023-06-14T10:18:45;6.57;;;1.23;;
69401;SDS011;56589;51.992;5.924;2023-06-14T10:21:21;3.72;;;1.13;;
69401;SDS011;56589;51.992;5.924;2023-06-14T10:23:57;2.35;;;1.00;;
69401;SDS011;56589;51.992;5.924;2023-06-14T10:26:32;1.20;;;1.10;;
69401;SDS011;56589;51.992;5.924;2023-06-14T10:28:59;0.95;;;0.80;;
69401;SDS011;56589;51.992;5.924;2023-06-14T10:34:08;3.03;;;1.10;;
69401;SDS011;56589;51.992;5.924;2023-06-14T10:36:34;3.15;;;1.00;;
69401;SDS011;56589;51.992;5.924;2023-06-14T10:39:01;3.72;;;1.00;;
69401;SDS011;56589;51.992;5.924;2023-06-14T10:41:34;1.55;;;0.90;;
69401;SDS011;56589;51.992;5.924;2023-06-14T10:47:06;3.10;;;0.98;;
69401;SDS011;56589;51.992;5.924;2023-06-14T10:49:38;1.60;;;0.95;;
69401;SDS011;56589;51.992;5.924;2023-06-14T10:52:08;1.80;;;1.05;;
69401;SDS011;56589;51.992;5.924;2023-06-14T10:54:36;4.95;;;1.05;;
69401;SDS011;56589;51.992;5.924;2023-06-14T10:57:04;1.60;;;0.70;;
69401;SDS011;56589;51.992;5.924;2023-06-14T10:59:32;5.75;;;1.02;;
69401;SDS011;56589;51.992;5.924;2023-06-14T11:01:58;1.80;;;0.75;;
69401;SDS011;56589;51.992;5.924;2023-06-14T11:05:03;1.40;;;0.88;;
69401;SDS011;56589;51.992;5.924;2023-06-14T11:07:37;2.85;;;1.67;;
69401;SDS011;56589;51.992;5.924;2023-06-14T11:10:22;2.50;;;1.30;;
69401;SDS011;56589;51.992;5.924;2023-06-14T11:13:03;1.52;;;1.05;;
69401;SDS011;56589;51.992;5.924;2023-06-14T11:15:30;2.35;;;1.13;;
69401;SDS011;56589;51.992;5.924;2023-06-14T11:17:56;1.52;;;1.10;;
69401;SDS011;56589;51.992;5.924;2023-06-14T11:20:25;5.00;;;1.25;;
69401;SDS011;56589;51.992;5.924;2023-06-14T11:22:52;2.17;;;1.00;;
69401;SDS011;56589;51.992;5.924;2023-06-14T11:25:19;1.75;;;1.00;;
69401;SDS011;56589;51.992;5.924;2023-06-14T11:27:45;2.63;;;1.02;;
69401;SDS011;56589;51.992;5.924;2023-06-14T11:30:14;1.63;;;1.02;;
69401;SDS011;56589;51.992;5.924;2023-06-14T11:32:40;2.85;;;1.20;;
69401;SDS011;56589;51.992;5.924;2023-06-14T11:35:06;1.75;;;1.20;;
69401;SDS011;56589;51.992;5.924;2023-06-14T11:37:35;1.60;;;1.25;;
69401;SDS011;56589;51.992;5.924;2023-06-14T11:40:02;1.75;;;0.98;;
69401;SDS011;56589;51.992;5.924;2023-06-14T11:42:31;2.60;;;0.98;;
69401;SDS011;56589;51.992;5.924;2023-06-14T11:44:57;2.17;;;1.17;;
69401;SDS011;56589;51.992;5.924;2023-06-14T11:47:25;2.08;;;1.08;;
69401;SDS011;56589;51.992;5.924;2023-06-14T11:49:58;4.20;;;1.40;;
69401;SDS011;56589;51.992;5.924;2023-06-14T11:52:24;4.57;;;1.50;;
69401;SDS011;56589;51.992;5.924;2023-06-14T11:54:49;3.70;;;1.48;;
69401;SDS011;56589;51.992;5.924;2023-06-14T11:57:17;9.65;;;1.65;;
69401;SDS011;56589;51.992;5.924;2023-06-14T11:59:44;37.35;;;3.67;;
69401;SDS011;56589;51.992;5.924;2023-06-14T12:02:13;9.10;;;1.52;;
69401;SDS011;56589;51.992;5.924;2023-06-14T12:04:43;2.05;;;1.10;;
69401;SDS011;56589;51.992;5.924;2023-06-14T12:07:12;1.63;;;1.25;;
69401;SDS011;56589;51.992;5.924;2023-06-14T12:09:39;1.40;;;1.02;;
69401;SDS011;56589;51.992;5.924;2023-06-14T12:12:06;2.55;;;1.15;;
69401;SDS011;56589;51.992;5.924;2023-06-14T12:14:33;4.05;;;0.90;;
69401;SDS011;56589;51.992;5.924;2023-06-14T12:17:03;1.60;;;0.93;;
69401;SDS011;56589;51.992;5.924;2023-06-14T12:19:31;3.40;;;1.98;;
69401;SDS011;56589;51.992;5.924;2023-06-14T12:21:59;2.80;;;1.10;;
69401;SDS011;56589;51.992;5.924;2023-06-14T12:24:27;4.65;;;1.10;;
69401;SDS011;56589;51.992;5.924;2023-06-14T12:26:53;2.42;;;1.00;;
69401;SDS011;56589;51.992;5.924;2023-06-14T12:29:19;2.00;;;0.90;;
69401;SDS011;56589;51.992;5.924;2023-06-14T12:31:45;1.33;;;1.00;;
69401;SDS011;56589;51.992;5.924;2023-06-14T12:34:11;2.00;;;1.10;;
69401;SDS011;56589;51.992;5.924;2023-06-14T12:36:36;1.00;;;0.90;;
69401;SDS011;56589;51.992;5.924;2023-06-14T12:39:05;2.72;;;1.15;;
69401;SDS011;56589;51.992;5.924;2023-06-14T12:41:31;2.03;;;0.90;;
69401;SDS011;56589;51.992;5.924;2023-06-14T12:43:57;4.20;;;1.33;;
69401;SDS011;56589;51.992;5.924;2023-06-14T12:46:22;1.83;;;0.90;;
69401;SDS011;56589;51.992;5.924;2023-06-14T12:48:48;3.10;;;0.90;;
69401;SDS011;56589;51.992;5.924;2023-06-14T12:51:14;1.25;;;0.85;;
69401;SDS011;56589;51.992;5.924;2023-06-14T12:53:40;1.27;;;0.90;;
69401;SDS011;56589;51.992;5.924;2023-06-14T12:56:08;3.45;;;0.73;;
69401;SDS011;56589;51.992;5.924;2023-06-14T12:58:34;3.45;;;1.10;;
69401;SDS011;56589;51.992;5.924;2023-06-14T13:01:00;1.58;;;0.88;;
69401;SDS011;56589;51.992;5.924;2023-06-14T13:03:26;7.05;;;1.05;;
69401;SDS011;56589;51.992;5.924;2023-06-14T13:05:51;1.20;;;0.80;;
69401;SDS011;56589;51.992;5.924;2023-06-14T13:08:17;1.85;;;0.70;;
69401;SDS011;56589;51.992;5.924;2023-06-14T13:10:43;2.90;;;0.88;;
69401;SDS011;56589;51.992;5.924;2023-06-14T13:13:11;2.92;;;0.90;;
69401;SDS011;56589;51.992;5.924;2023-06-14T13:15:37;1.20;;;0.90;;
69401;SDS011;56589;51.992;5.924;2023-06-14T13:18:03;3.05;;;0.95;;
69401;SDS011;56589;51.992;5.924;2023-06-14T13:20:29;2.20;;;0.80;;
69401;SDS011;56589;51.992;5.924;2023-06-14T13:22:55;3.47;;;1.58;;
69401;SDS011;56589;51.992;5.924;2023-06-14T13:25:20;1.40;;;0.80;;
69401;SDS011;56589;51.992;5.924;2023-06-14T13:27:46;0.98;;;0.80;;
69401;SDS011;56589;51.992;5.924;2023-06-14T13:30:15;1.98;;;0.70;;
69401;SDS011;56589;51.992;5.924;2023-06-14T13:32:40;1.20;;;0.80;;
69401;SDS011;56589;51.992;5.924;2023-06-14T13:35:06;1.40;;;0.85;;
69401;SDS011;56589;51.992;5.924;2023-06-14T13:37:33;1.73;;;0.90;;
69401;SDS011;56589;51.992;5.924;2023-06-14T13:39:58;1.90;;;0.65;;
69401;SDS011;56589;51.992;5.924;2023-06-14T13:42:24;5.88;;;0.82;;
69401;SDS011;56589;51.992;5.924;2023-06-14T13:44:50;2.58;;;0.90;;
69401;SDS011;56589;51.992;5.924;2023-06-14T13:47:18;4.57;;;1.15;;
69401;SDS011;56589;51.992;5.924;2023-06-14T13:49:44;1.80;;;0.82;;
69401;SDS011;56589;51.992;5.924;2023-06-14T13:52:10;2.38;;;0.80;;
69401;SDS011;56589;51.992;5.924;2023-06-14T13:54:36;2.33;;;0.80;;
69401;SDS011;56589;51.992;5.924;2023-06-14T13:57:02;2.50;;;0.95;;
69401;SDS011;56589;51.992;5.924;2023-06-14T13:59:28;2.92;;;0.85;;
69401;SDS011;56589;51.992;5.924;2023-06-14T14:01:54;2.33;;;0.80;;
69401;SDS011;56589;51.992;5.924;2023-06-14T14:04:22;4.57;;;0.95;;
69401;SDS011;56589;51.992;5.924;2023-06-14T14:06:48;1.05;;;0.88;;
69401;SDS011;56589;51.992;5.924;2023-06-14T14:09:14;1.70;;;0.70;;
69401;SDS011;56589;51.992;5.924;2023-06-14T14:11:40;1.95;;;0.90;;
69401;SDS011;56589;51.992;5.924;2023-06-14T14:14:05;2.55;;;0.80;;
69401;SDS011;56589;51.992;5.924;2023-06-14T14:16:31;2.80;;;0.68;;
69401;SDS011;56589;51.992;5.924;2023-06-14T14:18:57;1.02;;;0.73;;
69401;SDS011;56589;51.992;5.924;2023-06-14T14:21:26;0.70;;;0.68;;
69401;SDS011;56589;51.992;5.924;2023-06-14T14:23:51;1.00;;;0.70;;
69401;SDS011;56589;51.992;5.924;2023-06-14T14:26:17;1.30;;;0.80;;
69401;SDS011;56589;51.992;5.924;2023-06-14T14:28:43;2.28;;;0.52;;
69401;SDS011;56589;51.992;5.924;2023-06-14T14:31:09;4.43;;;0.77;;
69401;SDS011;56589;51.992;5.924;2023-06-14T14:33:34;3.22;;;0.93;;
69401;SDS011;56589;51.992;5.924;2023-06-14T14:36:00;3.08;;;1.00;;
69401;SDS011;56589;51.992;5.924;2023-06-14T14:38:29;1.00;;;0.80;;
69401;SDS011;56589;51.992;5.924;2023-06-14T14:40:55;3.10;;;0.90;;
69401;SDS011;56589;51.992;5.924;2023-06-14T14:43:20;1.95;;;0.95;;
69401;SDS011;56589;51.992;5.924;2023-06-14T14:45:46;1.10;;;0.65;;
69401;SDS011;56589;51.992;5.924;2023-06-14T14:48:12;4.10;;;0.80;;
69401;SDS011;56589;51.992;5.924;2023-06-14T14:50:38;2.55;;;0.90;;
69401;SDS011;56589;51.992;5.924;2023-06-14T14:53:04;1.80;;;0.70;;